Fall River Mills, CA (96028)

3:38 AM PDT on September 17, 2014 (GMT -0700)
Glenburn | Change Station
CLOSE
Current Station
Personal Weather Station
Location: Fall River Mills, CA
Elevation: 3347 ft
Nearby Weather Stations

Elev 3347 ft 41.08 °N, 121.54 °W | Updated 1 second ago

Partly Cloudy
Partly Cloudy
50.5 °F
Feels Like 50.5 °F
N
0.0
Wind Variable Wind from North
Gusts 0.0 mph

Today
High -- | Low -- °F
--% Chance of Precip.
Yesterday
High -- | Low -- °F
Precip. -- in
6:48 AM 7:11 PM
Last Quarter, 37% visible
Pressure 29.86 in
Visibility 10.0 miles
Clouds Clear
Dew Point 24 °F
Humidity 36%
Rainfall 0.00 in
Snow Depth 0 in , 1 in , 0 in
UV 0 out of 12
Pollen 6.80 out of 12
Air Quality Not available.
Flu Activity Not available.
METAR KMHS 170956Z AUTO 00000KT 10SM CLR 16/M02 A2991 RMK AO2 SLP111 T01611022

More Conditions Fewer Conditions

Pressure 29.86 in
Visibility 10.0 miles
Clouds Clear
Dew Point 24 °F
Humidity 36%
Rainfall 0.00 in
Snow Depth 0 in , 1 in , 0 in
UV 0 out of 12
Pollen 6.80 out of 12
Air Quality Not available.
Flu Activity Not available.
METAR KMHS 170956Z AUTO 00000KT 10SM CLR 16/M02 A2991 RMK AO2 SLP111 T01611022

More Conditions Fewer Conditions

10-Day Weather Forecast

Almanac

Astronomy

Sep. 17, 2014 Rise Set
Actual Time 6:48 AM PDT 7:11 PM PDT
Civil Twilight 6:21 AM PDT 7:39 PM PDT
Nautical Twilight 5:48 AM PDT 8:11 PM PDT
Astronomical Twilight 5:15 AM PDT 8:44 PM PDT
Moon 12:50 AM PDT 3:27 PM PDT
Length of Visible Light 13h 18m
Length of Day
12h 22m
Tomorrow will be 2m 42s shorter.
Last Quarter, 37% of the Moon is Illuminated
Today
Last Quarter
Sep 24
New
Oct 1
First Quarter
Oct 8
Full
Oct 15
Last Quarter

Today's Extremes

State Highs State Lows

Community

WunderPhotos

Upload Photos

1,753,993 photos uploaded!

Nearby

Snow Depth

Station Depth Elevation
Echo Peak 0 in 7800 ft
Spratt Creek 1 in 6200 ft
Fallen Leaf 0 in 6300 ft
Tahoe City Cross 0 in 6750 ft
Summit Meadow 1 in 9122 ft

Earthquake Activity

City Distance Mag. Time & Date
Lakeview, Oregon 112 miles 2.6 1:34 PM PDT
2014-09-16
Lakeview, Oregon 111 miles 2.5 4:10 AM PDT
2014-09-16
Lakeview, Oregon 112 miles 3.0 4:23 PM PDT
2014-09-15
Lakeview, Oregon 111 miles 2.9 6:16 AM PDT
2014-09-15
Minimum magnitude displayed is 2.5.

Coastal Water Temperatures

Place Temperature
No Stations Reporting

Nearby Weather Stations